Time;durP1;ratioP1;P1;durP2;ratioP2;P2;SDS_P1;SDS_P2;PMS_P1;PMS_P2;Temp;Humidity;BMP_temperature;BMP_pressure;BME280_temperature;BME280_humidity;BME280_pressure;Samples;Min_cycle;Max_cycle;Signal;HPM_P1;HPM_P2
2022/05/20 00:01:05;;;;;;;23.57;21.23;;;14.60;99.90;;;;;;5048908;28;20076;-72
2022/05/20 00:03:31;;;;;;;22.35;19.50;;;14.50;99.90;;;;;;5037618;28;20381;-72
2022/05/20 00:05:58;;;;;;;19.52;17.52;;;14.50;99.90;;;;;;5047006;28;20045;-72
2022/05/20 00:08:23;;;;;;;19.20;15.88;;;14.50;99.90;;;;;;5048144;28;20049;-72
2022/05/20 00:10:53;;;;;;;18.65;14.73;;;14.50;99.90;;;;;;5047262;28;20401;-72
2022/05/20 00:13:24;;;;;;;16.08;14.48;;;14.50;99.90;;;;;;5049029;28;20938;-72
2022/05/20 00:15:51;;;;;;;18.67;16.83;;;14.50;99.90;;;;;;5048500;28;20041;-72
2022/05/20 00:18:17;;;;;;;17.35;15.77;;;14.50;99.90;;;;;;5048026;28;20411;-72
2022/05/20 00:20:42;;;;;;;17.80;16.02;;;14.50;99.90;;;;;;5036516;28;20046;-72
2022/05/20 00:23:09;;;;;;;15.80;14.20;;;14.50;99.90;;;;;;5048887;28;20048;-72
2022/05/20 00:25:46;;;;;;;19.98;16.60;;;14.40;99.90;;;;;;5050243;28;20044;-72
2022/05/20 00:28:20;;;;;;;17.13;15.32;;;14.40;99.90;;;;;;5034738;28;20041;-73
2022/05/20 00:30:51;;;;;;;15.00;13.48;;;14.50;99.90;;;;;;5040613;28;20103;-72
2022/05/20 00:33:17;;;;;;;16.27;13.82;;;14.40;99.90;;;;;;5048069;28;20084;-72
2022/05/20 00:35:45;;;;;;;15.73;13.93;;;14.40;99.90;;;;;;5048722;28;20087;-72
2022/05/20 00:38:11;;;;;;;16.42;14.57;;;14.40;99.90;;;;;;5049245;28;20060;-72
2022/05/20 00:40:39;;;;;;;14.57;13.23;;;14.40;99.90;;;;;;5045269;28;20421;-72
2022/05/20 00:43:11;;;;;;;14.18;12.90;;;14.40;99.90;;;;;;5037805;28;20045;-72
2022/05/20 00:45:37;;;;;;;15.40;13.20;;;14.40;99.90;;;;;;5049159;28;20135;-72
2022/05/20 00:48:03;;;;;;;17.33;15.27;;;14.40;99.90;;;;;;5049797;28;20128;-72
2022/05/20 00:50:29;;;;;;;19.25;13.90;;;14.40;99.90;;;;;;5049609;28;20048;-72
2022/05/20 00:52:54;;;;;;;16.17;14.68;;;14.40;99.90;;;;;;5050113;28;20060;-72
2022/05/20 00:55:23;;;;;;;13.80;12.55;;;14.40;99.90;;;;;;5036828;28;20395;-71
2022/05/20 00:58:05;;;;;;;14.63;13.27;;;14.40;99.90;;;;;;5048041;28;20045;-73
2022/05/20 01:00:35;;;;;;;15.18;13.68;;;14.40;99.90;;;;;;5047916;28;20612;-72
2022/05/20 01:03:04;;;;;;;14.02;12.77;;;14.40;99.90;;;;;;5045993;28;20068;-72
2022/05/20 01:05:43;;;;;;;16.20;14.55;;;14.40;99.90;;;;;;5048348;28;20480;-72
2022/05/20 01:08:13;;;;;;;15.07;12.25;;;14.40;99.90;;;;;;5047642;28;20056;-72
2022/05/20 01:10:39;;;;;;;15.07;12.57;;;14.40;99.90;;;;;;5048106;28;20053;-72
2022/05/20 01:13:05;;;;;;;14.38;11.93;;;14.30;99.90;;;;;;5038492;28;20052;-72
2022/05/20 01:15:31;;;;;;;13.35;10.50;;;14.30;99.90;;;;;;5030971;28;20108;-72
2022/05/20 01:17:57;;;;;;;12.52;10.32;;;14.30;99.90;;;;;;5047372;28;20051;-73
2022/05/20 01:20:29;;;;;;;15.00;11.85;;;14.20;99.90;;;;;;5047983;28;20056;-72
2022/05/20 01:23:07;;;;;;;14.45;11.32;;;14.30;99.90;;;;;;5048272;28;20049;-72
2022/05/20 01:25:32;;;;;;;13.05;10.13;;;14.20;99.90;;;;;;5047846;28;20087;-72
2022/05/20 01:27:59;;;;;;;20.27;10.85;;;14.20;99.90;;;;;;5047824;28;22055;-72
2022/05/20 01:30:27;;;;;;;13.95;10.60;;;14.20;99.90;;;;;;5048437;28;20048;-72
2022/05/20 01:32:53;;;;;;;10.43;9.38;;;14.20;99.90;;;;;;5049303;28;20045;-72
2022/05/20 01:35:35;;;;;;;10.77;9.45;;;14.10;99.90;;;;;;5048474;28;20041;-72
2022/05/20 01:38:02;;;;;;;12.70;9.35;;;14.20;99.90;;;;;;5048532;28;20041;-72
2022/05/20 01:40:44;;;;;;;18.50;9.50;;;14.10;99.90;;;;;;5046949;28;20123;-72
2022/05/20 01:43:42;;;;;;;9.57;8.48;;;14.10;99.90;;;;;;5033486;28;20087;-72
2022/05/20 01:46:35;;;;;;;10.63;9.43;;;14.10;99.90;;;;;;5045357;28;20091;-72
2022/05/20 01:49:38;;;;;;;13.25;9.35;;;14.10;99.90;;;;;;5040262;28;20052;-72
2022/05/20 01:52:25;;;;;;;10.07;8.52;;;14.00;99.90;;;;;;5038434;28;20553;-73
2022/05/20 01:55:10;;;;;;;13.05;8.45;;;14.00;99.90;;;;;;5046819;28;20052;-72
2022/05/20 01:57:49;;;;;;;10.68;8.15;;;14.00;99.90;;;;;;5048491;28;20052;-72
2022/05/20 02:00:19;;;;;;;10.18;8.57;;;14.00;99.90;;;;;;5048313;28;20057;-73
2022/05/20 02:03:16;;;;;;;9.45;8.45;;;14.00;99.90;;;;;;5046046;28;20044;-72
2022/05/20 02:06:02;;;;;;;12.57;9.32;;;14.00;99.90;;;;;;5036030;28;20411;-73
2022/05/20 02:08:51;;;;;;;11.20;8.32;;;14.00;99.90;;;;;;5047069;28;20045;-73
2022/05/20 02:11:35;;;;;;;12.77;9.00;;;13.90;99.90;;;;;;5028935;28;20053;-73
2022/05/20 02:14:12;;;;;;;11.68;9.10;;;13.90;99.90;;;;;;5043319;28;20049;-73
2022/05/20 02:16:43;;;;;;;9.05;8.15;;;13.90;99.90;;;;;;5041136;28;20171;-73
2022/05/20 02:19:19;;;;;;;11.25;9.50;;;13.90;99.90;;;;;;5047986;28;20060;-72
2022/05/20 02:21:47;;;;;;;11.98;9.57;;;13.80;99.90;;;;;;5042650;28;20044;-71
2022/05/20 02:24:17;;;;;;;14.13;10.00;;;13.80;99.90;;;;;;5044261;28;20053;-71
2022/05/20 02:26:49;;;;;;;11.35;8.98;;;13.80;99.90;;;;;;5036295;28;20048;-71
2022/05/20 02:29:18;;;;;;;17.52;10.65;;;13.60;99.90;;;;;;5047152;28;20095;-71
2022/05/20 02:31:52;;;;;;;14.05;11.45;;;13.60;99.90;;;;;;5039457;28;20041;-71
2022/05/20 02:34:18;;;;;;;14.40;10.80;;;13.60;99.90;;;;;;5041538;28;20060;-72
2022/05/20 02:36:43;;;;;;;12.18;10.90;;;13.60;99.90;;;;;;5037100;28;20041;-71
2022/05/20 02:39:15;;;;;;;12.82;11.52;;;13.50;99.90;;;;;;5047423;28;20390;-71
2022/05/20 02:41:45;;;;;;;13.68;11.23;;;13.50;99.90;;;;;;5046880;28;20152;-71
2022/05/20 02:44:11;;;;;;;13.18;11.98;;;13.40;99.90;;;;;;5046749;28;20126;-72
2022/05/20 02:46:38;;;;;;;16.77;12.23;;;13.40;99.90;;;;;;5046217;28;20617;-72
2022/05/20 02:49:04;;;;;;;12.40;11.30;;;13.40;99.90;;;;;;5046804;28;20044;-72
2022/05/20 02:51:29;;;;;;;14.25;12.80;;;13.40;99.90;;;;;;5029859;28;20049;-72
2022/05/20 02:53:55;;;;;;;14.43;12.57;;;13.40;99.90;;;;;;5044472;28;20041;-72
2022/05/20 02:56:21;;;;;;;15.05;13.68;;;13.40;99.90;;;;;;5047192;28;20118;-72
2022/05/20 03:04:15;;;;;;;25.90;16.33;;;13.30;99.90;;;;;;5046204;28;20053;-72
2022/05/20 03:06:50;;;;;;;25.27;20.35;;;13.20;99.90;;;;;;5048662;28;20049;-72
2022/05/20 03:09:20;;;;;;;21.38;18.15;;;13.20;99.90;;;;;;5053546;28;20037;-72
2022/05/20 03:11:46;;;;;;;22.50;20.13;;;13.20;99.90;;;;;;5047898;28;20037;-72
2022/05/20 03:14:14;;;;;;;22.75;20.27;;;13.10;99.90;;;;;;5051326;28;20063;-72
2022/05/20 03:16:40;;;;;;;23.65;19.13;;;13.10;99.90;;;;;;5051807;28;20045;-72
2022/05/20 03:19:07;;;;;;;21.33;18.25;;;13.10;99.90;;;;;;5050542;28;20060;-72
2022/05/20 03:21:34;;;;;;;22.83;18.55;;;13.10;99.90;;;;;;5050136;28;20045;-72
2022/05/20 03:24:01;;;;;;;21.15;18.98;;;13.10;99.90;;;;;;5051954;28;20442;-72
2022/05/20 03:26:28;;;;;;;21.75;19.02;;;13.00;99.90;;;;;;5050645;28;20053;-72
2022/05/20 03:28:53;;;;;;;20.88;18.70;;;13.10;99.90;;;;;;5051007;28;20033;-72
2022/05/20 03:31:19;;;;;;;21.73;19.08;;;13.10;99.90;;;;;;5049673;28;20137;-72
2022/05/20 03:33:46;;;;;;;21.85;19.65;;;13.00;99.90;;;;;;5051672;28;20164;-72
2022/05/20 03:36:12;;;;;;;25.83;21.48;;;13.00;99.90;;;;;;5051367;28;20079;-72
2022/05/20 03:38:39;;;;;;;23.08;20.45;;;12.90;99.90;;;;;;5051261;28;20045;-72
2022/05/20 03:41:06;;;;;;;31.10;23.63;;;12.90;99.90;;;;;;5051910;28;20935;-72
2022/05/20 03:43:33;;;;;;;28.25;22.05;;;12.90;99.90;;;;;;5051815;28;20087;-72
2022/05/20 03:46:00;;;;;;;28.60;20.20;;;12.80;99.90;;;;;;5041962;28;20495;-72
2022/05/20 03:48:26;;;;;;;19.02;16.52;;;12.80;99.90;;;;;;5046797;28;20037;-72
2022/05/20 03:50:52;;;;;;;26.95;19.02;;;12.80;99.90;;;;;;5051956;28;20048;-72
2022/05/20 03:53:18;;;;;;;19.05;17.05;;;12.80;99.90;;;;;;5036932;28;20065;-72
2022/05/20 03:55:44;;;;;;;20.58;18.58;;;12.80;99.90;;;;;;5052084;28;20546;-72
2022/05/20 03:58:10;;;;;;;19.98;18.00;;;12.80;99.90;;;;;;5049965;28;20183;-72
2022/05/20 04:01:56;;;;;;;21.52;19.02;;;12.80;99.90;;;;;;5049485;28;20045;-72
2022/05/20 04:03:23;;;;;;;20.08;17.77;;;12.80;99.90;;;;;;5049217;28;20118;-72
2022/05/20 04:05:49;;;;;;;21.88;17.50;;;12.80;99.90;;;;;;5047477;28;20226;-72
2022/05/20 04:08:16;;;;;;;26.05;18.25;;;12.90;99.90;;;;;;5049263;28;20059;-72
2022/05/20 04:10:41;;;;;;;26.80;20.75;;;12.80;99.90;;;;;;5032647;28;20049;-72
2022/05/20 04:13:07;;;;;;;27.77;21.35;;;12.80;99.90;;;;;;5042078;28;20187;-72
2022/05/20 04:15:33;;;;;;;32.45;18.75;;;12.90;99.90;;;;;;5050483;28;20048;-72
2022/05/20 04:17:59;;;;;;;22.48;17.60;;;13.00;99.90;;;;;;5049153;28;20124;-72
2022/05/20 04:20:24;;;;;;;25.13;18.30;;;13.10;99.90;;;;;;5049417;28;20460;-72
2022/05/20 04:22:50;;;;;;;26.10;21.10;;;13.00;99.90;;;;;;5050417;28;20060;-72
2022/05/20 04:25:16;;;;;;;23.45;20.98;;;13.00;99.90;;;;;;5049794;28;20120;-72
2022/05/20 04:27:41;;;;;;;26.10;20.75;;;13.00;99.90;;;;;;5050239;28;20033;-72
2022/05/20 04:30:08;;;;;;;25.80;20.55;;;13.00;99.90;;;;;;5050351;28;20037;-72
2022/05/20 04:32:34;;;;;;;25.00;20.45;;;12.90;99.90;;;;;;5049493;28;20556;-72
2022/05/20 04:34:59;;;;;;;29.85;20.17;;;12.90;99.90;;;;;;5050091;28;20088;-72
2022/05/20 04:37:26;;;;;;;26.77;19.83;;;13.00;99.90;;;;;;5049942;28;20132;-72
2022/05/20 04:39:51;;;;;;;30.52;21.30;;;13.00;99.90;;;;;;5049375;28;20425;-72
2022/05/20 04:47:47;;;;;;;28.98;20.95;;;13.00;99.90;;;;;;5049707;28;20064;-72
2022/05/20 04:50:13;;;;;;;22.27;19.88;;;12.90;99.90;;;;;;5050059;28;20041;-72
2022/05/20 04:52:39;;;;;;;27.23;20.17;;;13.00;99.90;;;;;;5048209;28;20068;-72
2022/05/20 04:55:05;;;;;;;22.60;19.75;;;13.00;99.90;;;;;;5048793;28;20097;-72
2022/05/20 04:57:44;;;;;;;21.70;18.70;;;13.00;99.90;;;;;;5050518;28;20053;-72
2022/05/20 05:00:20;;;;;;;26.55;21.15;;;13.00;99.90;;;;;;5050277;28;20049;-72
2022/05/20 05:02:46;;;;;;;22.77;20.35;;;13.00;99.90;;;;;;5049776;28;20043;-72
2022/05/20 05:05:15;;;;;;;23.17;20.67;;;13.00;99.90;;;;;;5049108;28;20041;-72
2022/05/20 05:07:44;;;;;;;27.27;22.38;;;13.10;99.90;;;;;;5049997;28;20456;-72
2022/05/20 05:10:12;;;;;;;27.15;20.88;;;13.00;99.90;;;;;;5048954;28;20053;-72
2022/05/20 05:12:38;;;;;;;33.92;24.90;;;13.00;99.90;;;;;;5051966;28;20049;-72
2022/05/20 05:15:05;;;;;;;31.55;26.00;;;13.00;99.90;;;;;;5049144;28;20037;-72
2022/05/20 05:20:23;;;;;;;34.60;25.40;;;13.00;99.90;;;;;;5048038;28;20056;-72
2022/05/20 05:22:53;;;;;;;31.98;23.40;;;13.10;99.90;;;;;;5048942;28;20041;-72
2022/05/20 05:25:22;;;;;;;30.73;23.45;;;13.10;99.90;;;;;;5050275;28;20052;-72
2022/05/20 05:27:48;;;;;;;27.63;20.90;;;13.10;99.90;;;;;;5049367;28;20560;-72
2022/05/20 05:30:14;;;;;;;33.15;23.15;;;13.20;99.90;;;;;;5048811;28;20041;-72
2022/05/20 05:32:41;;;;;;;28.23;22.95;;;13.20;99.90;;;;;;5033066;28;20475;-72
2022/05/20 05:35:11;;;;;;;31.48;22.63;;;13.20;99.90;;;;;;5049408;28;20047;-72
2022/05/20 05:37:39;;;;;;;36.35;24.77;;;13.20;99.90;;;;;;5048487;28;20097;-72
2022/05/20 05:40:07;;;;;;;35.28;22.08;;;13.30;99.90;;;;;;5049636;28;20083;-72
2022/05/20 05:42:32;;;;;;;36.58;22.65;;;13.30;99.90;;;;;;5046671;28;20061;-71
2022/05/20 05:44:58;;;;;;;30.38;22.98;;;13.30;99.90;;;;;;5047188;28;20049;-73
2022/05/20 05:47:24;;;;;;;36.33;23.27;;;13.40;99.90;;;;;;5042655;28;20072;-73
2022/05/20 05:49:49;;;;;;;28.80;23.45;;;13.50;99.90;;;;;;5042188;28;20102;-73
2022/05/20 05:52:15;;;;;;;30.17;23.73;;;13.50;99.90;;;;;;5043184;28;20866;-73
2022/05/20 05:54:41;;;;;;;28.85;21.85;;;13.60;99.90;;;;;;5047186;28;20705;-73
2022/05/20 05:57:07;;;;;;;31.33;25.38;;;13.60;99.90;;;;;;5048895;28;20049;-73
2022/05/20 05:59:34;;;;;;;28.70;22.15;;;13.70;99.90;;;;;;5047671;28;20044;-72
2022/05/20 06:02:01;;;;;;;29.23;22.77;;;13.80;99.90;;;;;;5044727;28;20049;-72
2022/05/20 06:04:28;;;;;;;31.50;23.02;;;13.90;99.90;;;;;;5045036;28;20509;-73
2022/05/20 06:06:54;;;;;;;27.38;21.08;;;13.90;99.90;;;;;;5045878;28;20140;-73
2022/05/20 06:09:22;;;;;;;29.35;22.10;;;14.00;99.90;;;;;;5045313;28;20486;-71
2022/05/20 06:11:49;;;;;;;25.90;21.08;;;14.00;99.90;;;;;;5042608;28;20102;-71
2022/05/20 06:14:16;;;;;;;27.75;19.63;;;14.20;99.90;;;;;;5046819;28;20048;-71
2022/05/20 06:16:42;;;;;;;25.98;20.17;;;14.20;99.90;;;;;;5044920;28;20412;-71
2022/05/20 06:19:08;;;;;;;31.52;18.63;;;14.30;99.90;;;;;;5046704;28;20084;-72
2022/05/20 06:21:34;;;;;;;22.63;17.10;;;14.40;99.90;;;;;;5046463;28;20076;-72
2022/05/20 06:24:01;;;;;;;20.73;16.80;;;14.50;99.90;;;;;;5047645;28;20053;-72
2022/05/20 06:26:30;;;;;;;23.73;16.92;;;14.60;99.90;;;;;;5046465;28;20506;-73
2022/05/20 06:28:56;;;;;;;23.83;17.00;;;14.70;99.90;;;;;;5029299;28;20044;-73
2022/05/20 06:31:22;;;;;;;27.60;15.38;;;14.80;99.90;;;;;;5047315;28;20556;-72
2022/05/20 06:33:47;;;;;;;25.02;14.05;;;15.00;99.90;;;;;;5041799;28;20052;-72
2022/05/20 06:41:43;;;;;;;17.75;12.63;;;15.50;99.90;;;;;;5045422;28;20168;-73
2022/05/20 06:44:08;;;;;;;20.70;14.15;;;15.70;99.90;;;;;;5045991;28;20049;-73
2022/05/20 06:46:34;;;;;;;17.73;14.45;;;15.90;99.90;;;;;;5042979;28;20155;-74
2022/05/20 06:49:01;;;;;;;19.25;12.68;;;16.00;99.90;;;;;;5036769;28;20135;-75
2022/05/20 06:51:29;;;;;;;18.67;13.02;;;16.20;99.90;;;;;;5044806;28;20053;-74
2022/05/20 06:53:57;;;;;;;18.33;12.98;;;16.20;99.90;;;;;;5044784;28;20099;-74
2022/05/20 06:56:25;;;;;;;12.45;11.15;;;16.20;99.90;;;;;;5042189;28;20095;-75
2022/05/20 06:58:52;;;;;;;14.65;11.02;;;16.20;99.90;;;;;;5039099;28;20126;-74
2022/05/20 07:01:17;;;;;;;14.85;11.00;;;16.40;99.90;;;;;;5039254;28;20056;-74
2022/05/20 07:03:43;;;;;;;12.48;9.25;;;16.40;99.90;;;;;;5047456;28;20044;-74
2022/05/20 07:06:11;;;;;;;12.77;10.43;;;16.20;99.90;;;;;;5039716;28;20044;-74
2022/05/20 07:08:37;;;;;;;15.98;10.85;;;16.50;99.90;;;;;;5045421;28;20048;-74
2022/05/20 07:11:03;;;;;;;14.70;10.93;;;16.80;99.90;;;;;;5044810;28;20903;-74
2022/05/20 07:13:31;;;;;;;13.82;10.95;;;17.00;99.90;;;;;;5041334;28;20495;-73
2022/05/20 07:15:59;;;;;;;17.13;10.20;;;17.10;99.90;;;;;;5041257;28;20111;-73
2022/05/20 07:18:26;;;;;;;16.20;10.85;;;17.30;99.90;;;;;;5029926;28;20045;-73
2022/05/20 07:20:51;;;;;;;16.83;9.63;;;17.30;99.90;;;;;;5047481;28;20060;-73
2022/05/20 07:23:17;;;;;;;19.92;11.40;;;17.40;99.90;;;;;;5047091;28;20049;-73
2022/05/20 07:25:43;;;;;;;16.80;9.30;;;17.50;99.90;;;;;;5046422;28;20051;-73
2022/05/20 07:28:09;;;;;;;14.90;10.85;;;17.40;99.90;;;;;;5047661;28;20053;-73
2022/05/20 07:30:36;;;;;;;13.93;9.38;;;17.40;99.90;;;;;;5046858;28;20037;-74
2022/05/20 07:33:02;;;;;;;12.63;8.93;;;17.60;99.90;;;;;;5046675;28;20081;-73
2022/05/20 07:35:28;;;;;;;14.30;11.82;;;17.60;99.90;;;;;;5047545;28;20048;-73
2022/05/20 07:37:54;;;;;;;10.82;9.73;;;17.70;99.90;;;;;;5048906;28;20049;-72
2022/05/20 07:40:22;;;;;;;16.65;9.38;;;17.60;99.90;;;;;;5046695;28;20044;-73
2022/05/20 07:42:48;;;;;;;15.60;8.98;;;17.60;99.90;;;;;;5046644;28;20088;-73
2022/05/20 07:45:15;;;;;;;15.63;9.43;;;17.60;99.90;;;;;;5044950;28;20103;-73
2022/05/20 07:47:42;;;;;;;12.55;10.07;;;17.90;99.90;;;;;;5046184;28;20049;-73
2022/05/20 07:50:09;;;;;;;15.57;10.77;;;18.00;99.90;;;;;;5045738;28;20557;-72
2022/05/20 07:55:25;;;;;;;15.95;12.68;;;18.00;99.90;;;;;;5044719;28;20056;-73
2022/05/20 07:57:52;;;;;;;16.10;11.57;;;18.00;99.90;;;;;;5050622;28;20045;-73
2022/05/20 08:00:20;;;;;;;16.15;10.35;;;18.10;99.90;;;;;;5047690;28;20053;-72
2022/05/20 08:02:47;;;;;;;13.63;11.02;;;18.40;99.90;;;;;;5047140;28;20136;-72
2022/05/20 08:05:17;;;;;;;30.83;12.67;;;18.30;99.90;;;;;;5044648;28;20041;-72
2022/05/20 08:07:45;;;;;;;18.58;11.70;;;18.10;99.90;;;;;;5030169;28;20053;-72
2022/05/20 08:10:22;;;;;;;12.32;10.30;;;18.10;99.90;;;;;;5041006;28;20036;-71
2022/05/20 08:12:49;;;;;;;12.52;10.80;;;18.30;99.90;;;;;;5041271;28;20045;-71
2022/05/20 08:15:16;;;;;;;13.48;11.07;;;18.60;99.90;;;;;;5050886;28;20045;-73
2022/05/20 08:17:43;;;;;;;13.07;10.70;;;18.60;99.90;;;;;;5049394;28;20052;-72
2022/05/20 08:20:21;;;;;;;21.70;13.00;;;18.60;99.90;;;;;;5049624;28;20493;-71
2022/05/20 08:22:46;;;;;;;16.88;14.75;;;18.90;99.90;;;;;;5046192;28;20034;-72
2022/05/20 08:25:12;;;;;;;12.68;10.27;;;18.60;99.90;;;;;;5046243;28;20421;-71
2022/05/20 08:27:37;;;;;;;16.70;13.18;;;18.70;99.90;;;;;;5048179;28;20405;-72
2022/05/20 08:30:12;;;;;;;17.25;14.02;;;18.80;99.90;;;;;;5052369;28;20048;-72
2022/05/20 08:32:38;;;;;;;21.70;15.15;;;18.90;99.90;;;;;;5069899;28;20040;-71
2022/05/20 08:35:05;;;;;;;18.70;14.95;;;18.60;99.90;;;;;;5054749;28;20048;-71
2022/05/20 08:37:31;;;;;;;17.80;13.90;;;18.70;99.90;;;;;;5049319;28;20067;-72
2022/05/20 08:39:58;;;;;;;;;;;18.70;99.90;;;;;;5037178;28;20154;-72
2022/05/20 08:42:29;;;;;;;20.02;16.23;;;18.50;99.90;;;;;;5048157;28;19920;-72
2022/05/20 08:44:55;;;;;;;22.55;17.08;;;18.50;99.90;;;;;;5048055;28;20060;-71
2022/05/20 08:47:26;;;;;;;17.63;15.60;;;18.50;99.90;;;;;;5023977;28;20494;-71
2022/05/20 08:49:57;;;;;;;19.92;16.05;;;18.50;99.90;;;;;;5049172;28;20178;-72
2022/05/20 08:52:23;;;;;;;20.05;17.52;;;18.60;99.90;;;;;;5045473;28;20116;-71
2022/05/20 08:54:49;;;;;;;16.70;14.80;;;18.20;99.90;;;;;;5046025;28;20203;-72
2022/05/20 08:57:29;;;;;;;22.90;16.90;;;18.50;99.90;;;;;;5047029;28;20543;-71
2022/05/20 08:59:56;;;;;;;21.00;16.08;;;18.70;99.90;;;;;;5046205;28;20078;-71
2022/05/20 09:02:22;;;;;;;19.17;15.25;;;18.60;99.90;;;;;;5039182;28;20041;-71
2022/05/20 09:04:49;;;;;;;20.17;18.08;;;18.70;99.90;;;;;;5052095;28;20529;-72
2022/05/20 09:07:18;;;;;;;18.80;15.52;;;18.80;99.90;;;;;;5046316;28;20078;-71
2022/05/20 09:09:53;;;;;;;16.48;14.73;;;19.00;99.90;;;;;;5047968;28;20434;-71
2022/05/20 09:12:26;;;;;;;20.65;15.30;;;19.50;99.90;;;;;;5045216;28;20124;-71
2022/05/20 09:18:39;;;;;;;20.25;17.17;;;19.60;99.90;;;;;;5041819;28;20061;-71
2022/05/20 09:21:14;;;;;;;18.63;16.75;;;19.70;99.90;;;;;;5039618;28;20057;-72
2022/05/20 09:23:55;;;;;;;24.50;17.60;;;19.70;99.90;;;;;;5032707;28;21660;-72
2022/05/20 09:26:30;;;;;;;16.35;14.43;;;19.60;99.90;;;;;;5044041;28;20078;-72
2022/05/20 09:29:08;;;;;;;16.35;13.38;;;19.10;99.90;;;;;;5045758;28;20063;-72
2022/05/20 09:31:38;;;;;;;16.83;13.05;;;19.30;99.90;;;;;;5043624;28;20057;-72
2022/05/20 09:34:27;;;;;;;26.60;13.73;;;19.50;99.90;;;;;;5030715;28;20059;-72
2022/05/20 09:37:19;;;;;;;14.60;12.07;;;19.70;99.90;;;;;;5038821;28;20132;-72
2022/05/20 09:39:49;;;;;;;15.07;13.50;;;19.80;99.90;;;;;;5046348;28;20080;-72
2022/05/20 09:42:27;;;;;;;16.17;13.38;;;19.70;99.90;;;;;;5046790;28;20055;-71
2022/05/20 09:44:59;;;;;;;16.33;13.00;;;19.40;99.90;;;;;;5045116;28;20063;-72
2022/05/20 09:47:44;;;;;;;15.57;13.82;;;19.50;99.90;;;;;;5043247;28;20048;-72
2022/05/20 09:50:37;;;;;;;16.50;14.80;;;19.50;99.90;;;;;;5028638;28;20057;-72
2022/05/20 09:53:32;;;;;;;12.50;11.30;;;19.60;99.90;;;;;;5042719;28;20049;-72
2022/05/20 09:56:21;;;;;;;16.38;12.82;;;19.80;99.90;;;;;;5038745;28;20125;-72
2022/05/20 09:59:08;;;;;;;14.82;12.77;;;19.90;99.90;;;;;;5045284;28;20124;-72
2022/05/20 10:01:36;;;;;;;15.85;13.23;;;20.00;99.90;;;;;;5027247;28;20073;-72
2022/05/20 10:04:08;;;;;;;15.63;14.02;;;20.00;99.90;;;;;;5033481;28;20127;-72
2022/05/20 10:06:56;;;;;;;14.50;11.88;;;19.90;99.90;;;;;;5032541;28;20510;-72
2022/05/20 10:09:41;;;;;;;17.65;13.75;;;19.90;99.90;;;;;;5038730;28;20045;-71
2022/05/20 10:12:30;;;;;;;14.63;12.02;;;19.70;99.90;;;;;;5037410;28;20041;-71
2022/05/20 10:15:15;;;;;;;13.43;12.15;;;19.50;99.90;;;;;;5036027;28;20518;-72
2022/05/20 10:17:58;;;;;;;14.25;12.70;;;19.30;99.90;;;;;;5039528;28;20049;-70
2022/05/20 10:20:39;;;;;;;14.57;13.07;;;19.30;99.90;;;;;;5040969;28;20068;-71
2022/05/20 10:23:06;;;;;;;16.60;13.23;;;19.10;99.90;;;;;;5039869;28;20164;-71
2022/05/20 10:26:01;;;;;;;16.63;14.18;;;19.00;99.90;;;;;;5037055;28;20098;-71
2022/05/20 10:34:55;;;;;;;16.50;13.60;;;19.40;99.90;;;;;;5034861;28;20107;-70
2022/05/20 10:37:31;;;;;;;15.13;13.10;;;19.50;99.90;;;;;;5042958;28;20056;-70
2022/05/20 10:40:16;;;;;;;17.80;12.85;;;19.40;99.90;;;;;;5041883;28;20057;-71
2022/05/20 10:43:00;;;;;;;16.77;12.35;;;19.50;99.90;;;;;;5041931;28;20053;-70
2022/05/20 10:48:45;;;;;;;16.65;12.68;;;19.60;99.90;;;;;;5040035;28;20056;-70
2022/05/20 10:51:41;;;;;;;14.13;12.82;;;19.60;99.90;;;;;;5037340;28;20052;-70
2022/05/20 10:54:51;;;;;;;14.10;12.38;;;19.60;99.90;;;;;;5041267;28;20053;-70
2022/05/20 10:57:44;;;;;;;12.43;11.02;;;19.50;99.90;;;;;;5040058;28;20558;-70
2022/05/20 11:00:18;;;;;;;10.95;9.82;;;19.50;99.90;;;;;;5043794;28;20084;-70
2022/05/20 11:03:03;;;;;;;14.40;11.20;;;19.30;99.90;;;;;;5020332;28;20494;-71
2022/05/20 11:05:59;;;;;;;23.63;12.48;;;19.40;99.90;;;;;;5035504;28;20091;-71
2022/05/20 11:08:55;;;;;;;11.67;10.40;;;19.50;99.90;;;;;;5041396;28;20152;-70
2022/05/20 11:11:39;;;;;;;12.32;10.82;;;19.50;99.90;;;;;;5038411;28;20126;-70
2022/05/20 11:14:43;;;;;;;14.68;11.23;;;19.50;99.90;;;;;;5042799;28;20071;-70
2022/05/20 11:17:43;;;;;;;12.98;11.38;;;19.50;99.90;;;;;;5038628;28;20060;-70
2022/05/20 11:20:35;;;;;;;16.42;10.63;;;19.50;99.90;;;;;;5037760;28;20049;-71
2022/05/20 11:23:40;;;;;;;14.75;10.30;;;19.60;99.90;;;;;;5040272;28;20609;-70
2022/05/20 11:26:17;;;;;;;11.52;10.18;;;19.70;99.90;;;;;;5006484;28;20140;-71
2022/05/20 11:29:18;;;;;;;19.30;12.52;;;19.70;99.90;;;;;;5042310;28;20043;-70
2022/05/20 11:31:52;;;;;;;20.85;13.07;;;19.90;99.90;;;;;;5040663;28;20429;-71
2022/05/20 11:34:22;;;;;;;18.63;13.23;;;20.00;99.90;;;;;;5021330;28;20049;-70
2022/05/20 11:36:49;;;;;;;15.32;11.07;;;20.10;99.90;;;;;;5039287;28;20127;-71
2022/05/20 11:39:26;;;;;;;13.05;10.98;;;20.30;99.90;;;;;;5038938;28;20053;-71
2022/05/20 11:42:18;;;;;;;15.93;12.32;;;20.50;99.90;;;;;;5041132;28;20060;-71
2022/05/20 11:45:11;;;;;;;14.38;11.32;;;20.20;92.10;;;;;;5049663;28;20087;-70
2022/05/20 11:48:31;;;;;;;11.02;9.93;;;20.10;99.20;;;;;;5040093;28;20052;-70
2022/05/20 11:51:37;;;;;;;13.60;11.25;;;20.10;87.50;;;;;;4968951;28;20052;-70
2022/05/20 11:54:15;;;;;;;17.70;15.32;;;20.20;97.60;;;;;;5041784;28;20836;-71
2022/05/20 11:56:53;;;;;;;20.45;16.13;;;20.20;92.80;;;;;;5041467;28;20053;-71
2022/05/20 11:59:31;;;;;;;;;;;20.20;92.20;;;;;;5041951;28;20059;-70
2022/05/20 12:01:59;;;;;;;15.38;13.77;;;19.80;77.30;;;;;;5040370;28;19932;-72
2022/05/20 12:04:29;;;;;;;13.88;12.20;;;19.90;96.60;;;;;;5032431;28;20052;-69
2022/05/20 12:06:59;;;;;;;13.43;12.10;;;19.70;82.00;;;;;;5042456;28;20057;-70
2022/05/20 12:09:43;;;;;;;16.50;13.48;;;19.60;74.70;;;;;;5043673;28;20472;-71
2022/05/20 12:12:12;;;;;;;20.25;17.75;;;19.60;93.30;;;;;;5039854;28;20055;-71
2022/05/20 12:14:57;;;;;;;23.05;18.38;;;19.70;96.50;;;;;;5039172;28;20053;-71
2022/05/20 12:17:35;;;;;;;25.38;17.80;;;19.90;95.40;;;;;;5040730;28;20045;-71
2022/05/20 12:26:20;;;;;;;26.77;23.95;;;20.10;99.90;;;;;;5037943;28;20061;-71
2022/05/20 12:28:46;;;;;;;40.35;30.50;;;20.10;99.90;;;;;;5034687;28;20045;-72
2022/05/20 12:31:25;;;;;;;37.28;27.60;;;20.10;99.90;;;;;;5041050;28;20591;-72
2022/05/20 12:33:52;;;;;;;31.70;27.10;;;20.20;99.90;;;;;;5046293;28;20592;-72
2022/05/20 12:36:29;;;;;;;44.40;32.05;;;20.20;99.90;;;;;;5040342;28;20102;-72
2022/05/20 12:39:06;;;;;;;39.30;29.02;;;20.20;99.90;;;;;;5039047;28;20080;-71
2022/05/20 12:41:56;;;;;;;32.35;28.25;;;20.20;99.90;;;;;;5040084;28;20055;-72
2022/05/20 12:44:22;;;;;;;38.72;30.48;;;20.10;99.90;;;;;;5038346;28;20060;-71
2022/05/20 12:47:15;;;;;;;33.00;27.85;;;19.90;99.90;;;;;;5043133;28;20159;-72
2022/05/20 12:49:47;;;;;;;46.13;29.75;;;19.90;97.70;;;;;;5030517;28;20131;-72
2022/05/20 12:52:34;;;;;;;39.88;28.63;;;19.80;99.90;;;;;;5044617;28;20079;-71
2022/05/20 12:55:19;;;;;;;41.45;29.33;;;19.80;99.90;;;;;;5040999;28;20099;-72
2022/05/20 12:57:54;;;;;;;31.20;25.25;;;19.70;99.90;;;;;;5041481;28;20441;-72
2022/05/20 13:00:28;;;;;;;41.30;28.27;;;19.50;99.90;;;;;;5042954;28;20572;-72
2022/05/20 13:03:08;;;;;;;31.70;23.95;;;19.50;99.90;;;;;;5039798;28;20045;-72
2022/05/20 13:05:58;;;;;;;32.25;26.63;;;19.40;99.90;;;;;;5042170;28;20491;-71
2022/05/20 13:08:42;;;;;;;36.38;26.60;;;19.30;99.90;;;;;;5039852;28;20072;-71
2022/05/20 13:11:12;;;;;;;33.58;27.65;;;19.40;99.90;;;;;;5041320;28;20052;-71
2022/05/20 13:13:38;;;;;;;38.33;26.02;;;19.30;99.90;;;;;;5048343;28;20045;-71
2022/05/20 13:16:08;;;;;;;29.38;23.58;;;19.30;99.90;;;;;;5048444;28;20102;-71
2022/05/20 13:18:40;;;;;;;30.92;23.35;;;19.40;99.90;;;;;;5040989;28;20057;-71
2022/05/20 13:21:20;;;;;;;29.20;22.88;;;19.40;99.90;;;;;;5038730;28;20059;-71
2022/05/20 13:23:53;;;;;;;29.00;19.92;;;19.40;99.90;;;;;;5042669;28;20652;-71
2022/05/20 13:26:26;;;;;;;23.08;19.25;;;19.20;99.90;;;;;;5038464;28;20052;-71
2022/05/20 13:29:11;;;;;;;22.75;18.30;;;19.30;99.90;;;;;;5039648;28;20086;-71
2022/05/20 13:31:38;;;;;;;20.83;18.30;;;19.10;99.90;;;;;;5037092;28;20095;-75
2022/05/20 13:34:04;;;;;;;23.42;15.43;;;19.10;99.90;;;;;;5039532;28;20051;-72
2022/05/20 13:36:42;;;;;;;19.45;17.15;;;19.00;99.90;;;;;;5043902;28;20459;-71